Terminal Aerodrome Forecast
Issued by NWS

Home | Current Version | Previous Version | Graphics & Text | Print | Product List | Glossary On
Versions: 1 2 3 4 5 6 7 8 9 10 11 12 13 14 15 16 17
000
FTUS43 KABR 271120 AAD
TAFPIR
TAF AMD
KPIR 271120Z 2711/2806 14006KT P6SM BKN120
     FM271600 04010KT P6SM SCT050 BKN200
     FM272100 04014KT P6SM VCTS BKN050CB=

USA.gov is the U.S. government's official web portal to all federal, state and local government web resources and services.